Time;durP1;ratioP1;P1;durP2;ratioP2;P2;SDS_P1;SDS_P2;PMS_P1;PMS_P2;Temp;Humidity;BMP_temperature;BMP_pressure;BME280_temperature;BME280_humidity;BME280_pressure;Samples;Min_cycle;Max_cycle;Signal;HPM_P1;HPM_P2
2022/11/25 00:01:28;;;;;;;4.63;4.27;;;20.50;64.80;;;;;;5002233;28;20461;-75
2022/11/25 00:03:58;;;;;;;5.80;5.30;;;20.50;64.80;;;;;;5001177;28;20511;-75
2022/11/25 00:06:30;;;;;;;7.73;5.20;;;20.50;64.80;;;;;;4997550;28;20446;-72
2022/11/25 00:09:00;;;;;;;5.60;5.20;;;20.50;64.80;;;;;;5007731;28;20469;-75
2022/11/25 00:11:28;;;;;;;4.33;3.93;;;20.50;64.80;;;;;;5013266;28;20451;-74
2022/11/25 00:13:57;;;;;;;5.40;4.90;;;20.50;64.80;;;;;;5012421;28;20478;-74
2022/11/25 00:16:26;;;;;;;4.87;4.40;;;20.50;64.80;;;;;;5012114;28;20447;-74
2022/11/25 00:18:55;;;;;;;5.40;4.90;;;20.50;64.70;;;;;;5007408;28;20500;-74
2022/11/25 00:21:25;;;;;;;5.10;4.70;;;20.50;64.70;;;;;;5011772;28;20454;-73
2022/11/25 00:23:56;;;;;;;4.63;4.30;;;20.50;64.70;;;;;;5012126;28;20505;-73
2022/11/25 00:26:26;;;;;;;5.80;5.30;;;20.50;64.70;;;;;;5013290;28;20446;-74
2022/11/25 00:28:56;;;;;;;5.43;4.93;;;20.50;64.70;;;;;;5011454;28;20960;-74
2022/11/25 00:31:26;;;;;;;5.17;4.77;;;20.50;64.60;;;;;;5013022;28;20498;-74
2022/11/25 00:33:55;;;;;;;4.60;4.20;;;20.50;64.70;;;;;;4995009;28;20560;-74
2022/11/25 00:36:25;;;;;;;5.10;4.60;;;20.50;64.70;;;;;;5005633;28;20950;-73
2022/11/25 00:38:55;;;;;;;4.77;4.37;;;20.50;64.60;;;;;;5013636;28;20466;-74
2022/11/25 00:46:59;;;;;;;5.33;4.83;;;20.50;64.60;;;;;;5013045;28;20859;-74
2022/11/25 00:49:28;;;;;;;5.73;4.93;;;20.50;64.60;;;;;;5010692;28;21055;-72
2022/11/25 00:51:56;;;;;;;5.70;5.20;;;20.50;64.60;;;;;;5012045;28;20461;-74
2022/11/25 00:54:25;;;;;;;4.53;4.17;;;20.50;64.60;;;;;;4993568;28;20888;-74
2022/11/25 00:56:54;;;;;;;4.70;4.30;;;20.50;64.60;;;;;;4995934;28;20466;-72
2022/11/25 00:59:22;;;;;;;6.33;5.73;;;20.50;64.60;;;;;;5011068;28;21305;-74
2022/11/25 01:01:50;;;;;;;5.30;4.80;;;20.50;64.50;;;;;;5009343;28;20554;-73
2022/11/25 01:04:18;;;;;;;5.30;4.90;;;20.40;64.50;;;;;;5012573;28;20474;-74
2022/11/25 01:06:46;;;;;;;5.03;4.63;;;20.40;64.50;;;;;;5012310;28;20530;-74
2022/11/25 01:09:15;;;;;;;5.10;4.77;;;20.50;64.50;;;;;;4992823;28;20561;-72
2022/11/25 01:11:45;;;;;;;5.13;4.63;;;20.40;64.60;;;;;;4995200;28;20467;-73
2022/11/25 01:14:13;;;;;;;4.97;4.40;;;20.40;64.60;;;;;;4994973;28;20536;-75
2022/11/25 01:16:41;;;;;;;4.80;4.40;;;20.40;64.60;;;;;;5012113;28;20987;-70
2022/11/25 01:19:11;;;;;;;5.10;4.63;;;20.50;64.50;;;;;;5007808;28;20552;-73
2022/11/25 01:21:39;;;;;;;4.90;4.40;;;20.40;64.60;;;;;;4994468;28;20541;-74
2022/11/25 01:24:13;;;;;;;5.00;4.37;;;20.40;64.60;;;;;;5006605;28;20505;-73
2022/11/25 01:26:44;;;;;;;5.00;4.33;;;20.40;64.60;;;;;;4994579;28;20544;-73
2022/11/25 01:29:15;;;;;;;4.90;4.50;;;20.40;64.60;;;;;;5012947;28;20568;-72
2022/11/25 01:31:44;;;;;;;5.13;4.77;;;20.40;64.60;;;;;;4995131;28;20488;-73
2022/11/25 01:34:15;;;;;;;4.60;4.30;;;20.40;64.50;;;;;;5009635;28;20516;-74
2022/11/25 01:36:44;;;;;;;5.83;5.33;;;20.40;64.50;;;;;;5010220;28;20802;-73
2022/11/25 01:39:17;;;;;;;4.90;4.50;;;20.40;64.50;;;;;;5012152;28;20526;-74
2022/11/25 01:41:47;;;;;;;5.20;4.70;;;20.40;64.60;;;;;;4993529;28;20463;-72
2022/11/25 01:44:18;;;;;;;4.70;4.30;;;20.40;64.50;;;;;;5009454;28;20478;-76
2022/11/25 01:46:55;;;;;;;5.33;4.83;;;20.40;64.50;;;;;;5006310;28;20846;-73
2022/11/25 01:49:34;;;;;;;5.10;4.63;;;20.40;64.50;;;;;;5011975;28;21012;-74
2022/11/25 01:52:08;;;;;;;5.10;4.60;;;20.40;64.40;;;;;;5009852;28;20475;-74
2022/11/25 01:54:40;;;;;;;4.37;4.07;;;20.40;64.50;;;;;;4993936;28;20497;-74
2022/11/25 01:57:14;;;;;;;4.33;4.03;;;20.40;64.40;;;;;;4993578;28;20455;-74
2022/11/25 01:59:46;;;;;;;5.00;4.33;;;20.40;64.40;;;;;;4993189;28;20470;-72
2022/11/25 02:02:15;;;;;;;5.40;4.80;;;20.40;64.40;;;;;;5010021;28;20454;-73
2022/11/25 02:04:46;;;;;;;4.33;4.00;;;20.40;64.40;;;;;;4993678;28;20475;-74
2022/11/25 02:07:19;;;;;;;5.77;5.00;;;20.40;64.30;;;;;;4993782;28;20455;-74
2022/11/25 02:09:50;;;;;;;4.97;4.47;;;20.40;64.40;;;;;;5012083;28;20451;-74
2022/11/25 02:12:22;;;;;;;4.70;4.07;;;20.40;64.30;;;;;;4993873;28;20794;-73
2022/11/25 02:14:51;;;;;;;4.27;3.87;;;20.40;64.30;;;;;;5010267;28;20473;-73
2022/11/25 02:17:20;;;;;;;5.20;4.70;;;20.40;64.30;;;;;;5012008;28;20527;-73
2022/11/25 02:19:59;;;;;;;5.30;4.80;;;20.40;64.30;;;;;;5011415;28;20481;-73
2022/11/25 02:22:40;;;;;;;4.87;4.47;;;20.40;64.30;;;;;;4992976;28;20588;-74
2022/11/25 02:25:16;;;;;;;4.80;4.40;;;20.40;64.30;;;;;;5010771;28;20475;-73
2022/11/25 02:27:47;;;;;;;4.10;3.80;;;20.40;64.30;;;;;;4992505;28;20650;-74
2022/11/25 02:30:16;;;;;;;4.30;4.00;;;20.40;64.30;;;;;;5002722;28;20895;-74
2022/11/25 02:32:45;;;;;;;5.87;4.87;;;20.40;64.20;;;;;;4993852;28;20839;-72
2022/11/25 02:35:26;;;;;;;4.33;4.00;;;20.40;64.20;;;;;;4993095;28;20498;-74
2022/11/25 02:37:58;;;;;;;4.47;4.10;;;20.40;64.20;;;;;;4990065;28;20789;-73
2022/11/25 02:40:29;;;;;;;4.43;4.13;;;20.40;64.20;;;;;;4993940;28;20512;-72
2022/11/25 02:43:00;;;;;;;4.57;4.20;;;20.40;64.20;;;;;;5011847;28;20453;-73
2022/11/25 02:45:37;;;;;;;4.87;4.57;;;20.40;64.20;;;;;;4992233;28;20883;-73
2022/11/25 02:48:06;;;;;;;4.80;4.40;;;20.40;64.10;;;;;;5011093;28;20546;-73
2022/11/25 02:50:34;;;;;;;4.63;4.23;;;20.40;64.10;;;;;;4993630;28;20473;-73
2022/11/25 02:53:02;;;;;;;4.03;3.73;;;20.40;64.10;;;;;;5009308;28;20467;-74
2022/11/25 02:55:32;;;;;;;4.63;4.23;;;20.40;64.10;;;;;;4992420;28;20526;-74
2022/11/25 02:58:00;;;;;;;4.70;4.40;;;20.40;64.00;;;;;;4987469;28;20802;-73
2022/11/25 03:00:28;;;;;;;5.20;4.80;;;20.40;64.00;;;;;;5010880;28;20541;-73
2022/11/25 03:02:56;;;;;;;4.43;4.13;;;20.40;64.00;;;;;;5009659;28;20508;-73
2022/11/25 03:05:25;;;;;;;4.57;4.27;;;20.40;64.00;;;;;;5010143;28;20600;-73
2022/11/25 03:07:53;;;;;;;4.43;4.13;;;20.40;64.00;;;;;;5010314;28;20554;-73
2022/11/25 03:10:22;;;;;;;4.90;4.40;;;20.40;64.00;;;;;;4993986;28;20874;-72
2022/11/25 03:12:51;;;;;;;4.83;4.43;;;20.40;64.00;;;;;;4993549;28;20962;-73
2022/11/25 03:15:20;;;;;;;6.53;4.47;;;20.40;64.00;;;;;;5002226;28;21096;-74
2022/11/25 03:17:48;;;;;;;4.60;4.27;;;20.40;64.00;;;;;;4994174;28;20553;-72
2022/11/25 03:20:17;;;;;;;5.00;4.47;;;20.40;64.00;;;;;;4995796;28;20463;-74
2022/11/25 03:22:47;;;;;;;4.53;4.13;;;20.40;64.00;;;;;;4996706;28;20492;-74
2022/11/25 03:25:16;;;;;;;4.90;4.50;;;20.40;64.00;;;;;;4996505;28;20482;-73
2022/11/25 03:27:44;;;;;;;4.50;4.13;;;20.40;64.00;;;;;;4997122;28;20465;-73
2022/11/25 03:30:16;;;;;;;4.97;4.47;;;20.40;64.00;;;;;;4997498;28;20462;-74
2022/11/25 03:32:46;;;;;;;4.23;3.83;;;20.40;64.00;;;;;;4995293;28;20466;-73
2022/11/25 03:35:14;;;;;;;5.20;4.30;;;20.40;64.00;;;;;;5013255;28;20461;-72
2022/11/25 03:37:44;;;;;;;5.37;4.80;;;20.40;64.00;;;;;;5010839;28;20536;-73
2022/11/25 03:40:14;;;;;;;4.40;4.10;;;20.40;63.90;;;;;;5005315;28;20600;-74
2022/11/25 03:42:43;;;;;;;4.87;4.47;;;20.40;63.90;;;;;;4997185;28;20460;-74
2022/11/25 03:45:14;;;;;;;5.10;4.60;;;20.40;64.00;;;;;;4996535;28;20479;-73
2022/11/25 03:47:46;;;;;;;4.47;4.00;;;20.40;63.90;;;;;;4996458;28;20495;-74
2022/11/25 03:50:15;;;;;;;3.63;3.27;;;20.40;63.90;;;;;;4995172;28;20456;-73
2022/11/25 03:52:45;;;;;;;4.77;4.37;;;20.40;63.90;;;;;;4996279;28;20476;-74
2022/11/25 03:55:15;;;;;;;5.30;4.30;;;20.40;63.90;;;;;;4994703;28;20474;-72
2022/11/25 03:57:46;;;;;;;4.80;4.40;;;20.40;63.90;;;;;;4996246;28;20890;-73
2022/11/25 04:00:16;;;;;;;4.87;4.37;;;20.40;63.90;;;;;;4995100;28;20546;-72
2022/11/25 04:02:53;;;;;;;4.57;4.10;;;20.40;63.90;;;;;;4996665;28;20465;-74
2022/11/25 04:05:21;;;;;;;4.33;4.03;;;20.40;63.80;;;;;;4996308;28;20539;-73
2022/11/25 04:07:50;;;;;;;5.37;4.87;;;20.40;63.90;;;;;;4991755;28;20456;-73
2022/11/25 04:10:25;;;;;;;4.20;3.90;;;20.40;63.80;;;;;;4993862;28;20456;-74
2022/11/25 04:12:53;;;;;;;4.77;4.37;;;20.40;63.80;;;;;;4996749;28;20459;-72
2022/11/25 04:15:28;;;;;;;4.77;4.33;;;20.30;63.80;;;;;;4996937;28;20469;-73
2022/11/25 04:17:58;;;;;;;4.73;4.30;;;20.40;63.80;;;;;;4996324;28;20473;-74
2022/11/25 04:20:26;;;;;;;4.30;3.90;;;20.30;63.80;;;;;;5012856;28;20505;-73
2022/11/25 04:23:02;;;;;;;4.20;3.90;;;20.30;63.80;;;;;;4995680;28;20505;-73
2022/11/25 04:25:33;;;;;;;5.40;4.90;;;20.30;63.80;;;;;;4996213;28;20482;-73
2022/11/25 04:28:01;;;;;;;4.97;4.60;;;20.30;63.70;;;;;;5010984;28;20482;-70
2022/11/25 04:30:35;;;;;;;5.17;4.67;;;20.30;63.80;;;;;;4995889;28;20561;-74
2022/11/25 04:33:03;;;;;;;5.77;5.27;;;20.30;63.80;;;;;;4996202;28;20888;-74
2022/11/25 04:35:33;;;;;;;5.10;4.60;;;20.30;63.80;;;;;;4996586;28;20456;-73
2022/11/25 04:38:03;;;;;;;4.60;4.20;;;20.30;63.80;;;;;;4996000;28;20490;-74
2022/11/25 04:40:34;;;;;;;4.27;3.90;;;20.30;63.70;;;;;;4994620;28;20571;-74
2022/11/25 04:43:13;;;;;;;5.40;4.53;;;20.30;63.80;;;;;;4995779;28;20507;-74
2022/11/25 04:45:52;;;;;;;4.50;4.10;;;20.30;63.70;;;;;;4996189;28;20992;-74
2022/11/25 04:48:40;;;;;;;5.17;4.30;;;20.30;63.70;;;;;;4995955;28;20490;-73
2022/11/25 04:51:09;;;;;;;4.97;4.57;;;20.30;63.70;;;;;;4993795;28;20492;-73
2022/11/25 04:53:37;;;;;;;4.80;4.30;;;20.30;63.70;;;;;;4996703;28;20491;-74
2022/11/25 04:56:07;;;;;;;5.00;4.60;;;20.30;63.70;;;;;;4995402;28;20459;-74
2022/11/25 05:01:29;;;;;;;3.93;3.63;;;20.30;63.70;;;;;;4989443;28;20471;-74
2022/11/25 05:04:07;;;;;;;4.30;3.90;;;20.30;63.80;;;;;;4994435;28;20459;-74
2022/11/25 05:06:36;;;;;;;5.53;4.60;;;20.30;63.70;;;;;;4994403;28;21026;-74
2022/11/25 05:09:06;;;;;;;4.90;4.40;;;20.30;63.70;;;;;;4993124;28;20473;-74
2022/11/25 05:11:37;;;;;;;6.93;3.97;;;20.30;63.70;;;;;;4992344;28;21005;-74
2022/11/25 05:14:05;;;;;;;4.90;4.47;;;20.30;63.70;;;;;;5007268;28;20478;-71
2022/11/25 05:16:35;;;;;;;4.60;3.97;;;20.30;63.60;;;;;;4992552;28;20458;-73
2022/11/25 05:19:03;;;;;;;5.40;4.90;;;20.30;63.70;;;;;;4991724;28;20485;-74
2022/11/25 05:21:33;;;;;;;4.60;4.20;;;20.30;63.60;;;;;;5007997;28;20447;-74
2022/11/25 05:24:01;;;;;;;4.90;4.37;;;20.30;63.70;;;;;;5003175;28;20549;-75
2022/11/25 05:26:31;;;;;;;5.03;4.50;;;20.30;63.70;;;;;;4994673;28;20480;-74
2022/11/25 05:29:00;;;;;;;4.60;4.20;;;20.30;63.70;;;;;;4994100;28;20479;-72
2022/11/25 05:31:31;;;;;;;3.47;3.20;;;20.30;63.60;;;;;;4992836;28;20556;-73
2022/11/25 05:34:02;;;;;;;5.10;3.97;;;20.30;63.60;;;;;;4993683;28;21007;-74
2022/11/25 05:36:31;;;;;;;4.90;4.50;;;20.30;63.70;;;;;;4988248;28;20457;-73
2022/11/25 05:39:00;;;;;;;4.13;3.73;;;20.30;63.60;;;;;;4991971;28;20462;-73
2022/11/25 05:41:46;;;;;;;4.10;3.80;;;20.30;63.60;;;;;;4991057;28;20470;-71
2022/11/25 05:44:14;;;;;;;4.33;3.90;;;20.30;63.60;;;;;;4993999;28;20539;-71
2022/11/25 05:46:50;;;;;;;4.37;3.93;;;20.30;63.60;;;;;;5005823;28;20473;-71
2022/11/25 05:49:20;;;;;;;3.97;3.67;;;20.30;63.70;;;;;;4993318;28;20509;-72
2022/11/25 05:51:50;;;;;;;5.20;4.13;;;20.30;63.80;;;;;;4986137;28;20557;-71
2022/11/25 05:54:20;;;;;;;5.07;4.53;;;20.30;63.80;;;;;;5003203;28;20532;-72
2022/11/25 05:56:49;;;;;;;5.70;4.10;;;20.30;63.70;;;;;;4985548;28;20870;-73
2022/11/25 05:59:28;;;;;;;6.40;3.87;;;20.30;64.30;;;;;;5007788;28;20540;-74
2022/11/25 06:02:05;;;;;;;7.63;4.40;;;20.30;64.40;;;;;;4985282;28;20588;-73
2022/11/25 06:04:35;;;;;;;3.77;3.40;;;20.30;64.50;;;;;;5003618;28;20478;-73
2022/11/25 06:07:05;;;;;;;4.37;3.60;;;20.30;64.50;;;;;;4982185;28;20483;-69
2022/11/25 06:09:33;;;;;;;5.00;4.40;;;20.30;64.40;;;;;;4981970;28;20480;-73
2022/11/25 06:12:01;;;;;;;4.50;4.10;;;20.30;64.20;;;;;;4995614;28;20555;-72
2022/11/25 06:14:31;;;;;;;8.07;3.77;;;20.30;64.20;;;;;;4986215;28;20519;-74
2022/11/25 06:16:59;;;;;;;7.17;3.83;;;20.30;64.30;;;;;;4989019;28;20486;-74
2022/11/25 06:19:32;;;;;;;6.03;3.87;;;20.30;64.30;;;;;;4988460;28;20463;-71
2022/11/25 06:22:01;;;;;;;4.40;3.80;;;20.30;64.30;;;;;;5000914;28;20477;-74
2022/11/25 06:24:30;;;;;;;4.40;4.00;;;20.30;64.30;;;;;;4980160;28;20532;-73
2022/11/25 06:27:04;;;;;;;3.93;3.53;;;20.30;64.50;;;;;;4993101;28;20507;-73
2022/11/25 06:29:34;;;;;;;6.63;3.20;;;20.30;64.50;;;;;;4996274;28;20509;-74
2022/11/25 06:32:02;;;;;;;4.17;3.70;;;20.30;64.60;;;;;;4993154;28;20468;-71
2022/11/25 06:34:41;;;;;;;4.13;3.53;;;20.30;64.60;;;;;;4983245;28;20557;-72
2022/11/25 06:37:37;;;;;;;3.93;3.40;;;20.30;64.50;;;;;;4991750;28;20465;-72
2022/11/25 06:40:07;;;;;;;4.97;3.43;;;20.30;64.50;;;;;;5000326;28;20460;-69
2022/11/25 06:42:37;;;;;;;9.10;3.70;;;20.20;65.10;;;;;;4996192;28;20468;-71
2022/11/25 06:45:06;;;;;;;5.43;3.30;;;20.20;65.10;;;;;;4996155;28;20476;-69
2022/11/25 06:47:34;;;;;;;11.00;5.17;;;20.20;65.20;;;;;;4995391;28;20480;-72
2022/11/25 06:50:03;;;;;;;7.80;4.30;;;20.20;67.30;;;;;;5001427;28;20547;-71
2022/11/25 06:52:31;;;;;;;11.47;4.67;;;20.20;67.40;;;;;;4998490;28;20476;-72
2022/11/25 06:55:02;;;;;;;12.40;4.77;;;20.30;67.10;;;;;;4997711;28;20455;-71
2022/11/25 06:57:30;;;;;;;6.53;4.13;;;20.30;66.70;;;;;;4997261;28;20455;-71
2022/11/25 06:59:58;;;;;;;4.47;4.07;;;20.20;66.60;;;;;;5000822;28;20462;-70
2022/11/25 07:02:26;;;;;;;6.30;4.07;;;20.20;67.40;;;;;;5003820;28;20550;-71
2022/11/25 07:04:54;;;;;;;5.03;3.90;;;20.20;67.00;;;;;;5001994;28;20524;-72
2022/11/25 07:07:23;;;;;;;5.43;4.33;;;20.30;66.60;;;;;;5005974;28;20478;-69
2022/11/25 07:09:51;;;;;;;4.07;3.77;;;20.20;66.40;;;;;;5004557;28;20511;-71
2022/11/25 07:12:20;;;;;;;16.77;8.33;;;20.20;66.50;;;;;;5009140;28;20462;-75
2022/11/25 07:14:50;;;;;;;10.67;5.03;;;20.20;67.40;;;;;;5008140;28;20458;-74
2022/11/25 07:17:18;;;;;;;8.23;5.17;;;20.20;69.40;;;;;;5010250;28;20465;-71
2022/11/25 07:19:46;;;;;;;13.33;4.90;;;20.30;68.20;;;;;;5002356;28;20469;-74
2022/11/25 07:22:15;;;;;;;12.57;4.80;;;20.20;69.10;;;;;;5002625;28;20458;-75
2022/11/25 07:24:43;;;;;;;11.30;5.33;;;20.20;72.00;;;;;;5005777;28;20502;-78
2022/11/25 07:27:11;;;;;;;10.60;5.60;;;20.30;70.60;;;;;;4997280;28;20562;-76
2022/11/25 07:29:40;;;;;;;9.07;5.30;;;20.30;69.40;;;;;;4998224;28;20473;-76
2022/11/25 07:32:28;;;;;;;6.77;4.80;;;20.30;68.10;;;;;;5006919;28;20476;-76
2022/11/25 07:34:57;;;;;;;4.93;4.27;;;20.30;67.80;;;;;;4996969;28;20457;-74
2022/11/25 07:37:26;;;;;;;4.40;4.10;;;20.30;67.80;;;;;;4994700;28;20973;-76
2022/11/25 07:39:54;;;;;;;6.30;4.33;;;20.30;67.60;;;;;;4997220;28;20455;-73
2022/11/25 07:42:22;;;;;;;6.27;4.73;;;20.30;67.40;;;;;;5009958;28;20515;-75
2022/11/25 07:44:52;;;;;;;4.73;3.93;;;20.30;67.70;;;;;;5009339;28;20465;-74
2022/11/25 07:47:49;;;;;;;5.40;4.40;;;20.30;67.40;;;;;;4998393;28;20501;-76
2022/11/25 07:50:17;;;;;;;4.97;4.00;;;20.30;67.50;;;;;;5009705;28;20457;-75
2022/11/25 07:52:45;;;;;;;4.80;3.70;;;20.20;67.70;;;;;;5007438;28;20464;-75
2022/11/25 07:55:13;;;;;;;4.60;3.20;;;20.30;67.60;;;;;;5011136;28;20867;-75
2022/11/25 07:57:41;;;;;;;7.30;3.70;;;20.30;67.50;;;;;;5010587;28;20524;-75
2022/11/25 08:00:13;;;;;;;4.93;3.63;;;20.30;67.50;;;;;;5010274;28;20568;-75
2022/11/25 08:02:41;;;;;;;5.83;3.20;;;20.30;67.40;;;;;;5012565;28;20541;-76
2022/11/25 08:05:10;;;;;;;4.40;3.50;;;20.30;67.40;;;;;;5014630;28;20482;-73
2022/11/25 08:07:38;;;;;;;5.07;3.70;;;20.30;67.30;;;;;;5010224;28;20986;-75
2022/11/25 08:10:07;;;;;;;3.77;3.43;;;20.30;67.30;;;;;;5013658;28;20480;-76
2022/11/25 08:12:36;;;;;;;4.17;3.50;;;20.30;67.30;;;;;;5013421;28;20484;-75
2022/11/25 08:15:04;;;;;;;4.53;2.97;;;20.30;67.10;;;;;;5004688;28;20446;-76
2022/11/25 08:17:33;;;;;;;4.13;3.83;;;20.30;67.10;;;;;;5013655;28;20487;-76
2022/11/25 08:20:02;;;;;;;4.63;3.83;;;20.30;66.90;;;;;;5013087;28;20449;-76
2022/11/25 08:22:30;;;;;;;6.90;3.00;;;20.30;67.00;;;;;;5012115;28;20446;-74
2022/11/25 08:24:58;;;;;;;4.03;3.10;;;20.30;67.20;;;;;;5012932;28;20462;-76
2022/11/25 08:27:26;;;;;;;3.57;3.20;;;20.30;66.90;;;;;;5013266;28;20805;-73
2022/11/25 08:29:54;;;;;;;3.97;3.67;;;20.30;66.90;;;;;;5013569;28;20542;-76
2022/11/25 08:32:23;;;;;;;4.27;2.80;;;20.30;67.00;;;;;;5009616;28;20470;-73
2022/11/25 08:34:52;;;;;;;3.80;3.43;;;20.30;66.90;;;;;;5012711;28;20549;-76
2022/11/25 08:37:20;;;;;;;4.10;3.40;;;20.30;66.70;;;;;;4995951;28;20473;-76
2022/11/25 08:39:49;;;;;;;4.20;3.23;;;20.30;66.50;;;;;;5004841;28;20470;-76
2022/11/25 08:42:20;;;;;;;4.00;3.30;;;20.30;66.70;;;;;;5010271;28;20542;-76
2022/11/25 08:44:52;;;;;;;2.87;2.67;;;20.30;66.40;;;;;;5013545;28;20503;-76
2022/11/25 08:47:20;;;;;;;4.30;3.53;;;20.30;66.30;;;;;;5012653;28;20842;-76
2022/11/25 08:49:53;;;;;;;3.23;2.93;;;20.30;66.30;;;;;;5013305;28;20879;-76
2022/11/25 08:52:22;;;;;;;3.33;3.03;;;20.30;66.30;;;;;;5006225;28;20468;-76
2022/11/25 08:54:50;;;;;;;3.67;3.03;;;20.30;66.40;;;;;;5003504;28;20488;-75
2022/11/25 08:57:18;;;;;;;3.80;2.80;;;20.30;66.60;;;;;;5011342;28;20462;-75
2022/11/25 08:59:46;;;;;;;4.93;3.07;;;20.40;66.80;;;;;;5010010;28;20468;-76
2022/11/25 09:02:18;;;;;;;3.73;2.90;;;20.40;66.80;;;;;;5011481;28;20887;-76
2022/11/25 09:04:46;;;;;;;3.80;3.50;;;20.40;66.80;;;;;;5012523;28;20447;-76
2022/11/25 09:07:16;;;;;;;4.10;3.00;;;20.40;66.90;;;;;;5010552;28;20478;-76
2022/11/25 09:09:44;;;;;;;3.47;3.20;;;20.40;66.80;;;;;;5009380;28;20456;-69
2022/11/25 09:12:12;;;;;;;3.50;3.00;;;20.40;66.80;;;;;;5007618;28;20526;-74
2022/11/25 09:14:40;;;;;;;3.73;2.97;;;20.50;66.80;;;;;;5011581;28;20553;-76
2022/11/25 09:17:10;;;;;;;3.40;3.10;;;20.50;66.60;;;;;;5011608;28;20447;-77
2022/11/25 09:19:39;;;;;;;3.67;3.37;;;20.50;66.60;;;;;;5011861;28;20526;-77
2022/11/25 09:22:08;;;;;;;5.53;3.00;;;20.60;66.40;;;;;;5009680;28;20458;-74
2022/11/25 09:24:37;;;;;;;3.20;2.87;;;20.70;66.30;;;;;;5014627;28;21113;-76
2022/11/25 09:27:05;;;;;;;3.17;2.90;;;20.70;66.10;;;;;;5012205;28;20471;-75
2022/11/25 09:29:33;;;;;;;3.30;3.00;;;20.70;66.10;;;;;;5010593;28;20463;-75
2022/11/25 09:32:03;;;;;;;4.17;2.93;;;20.70;66.00;;;;;;5010941;28;20447;-77
2022/11/25 09:34:31;;;;;;;3.20;2.90;;;20.70;65.80;;;;;;5006499;28;20862;-79
2022/11/25 09:36:59;;;;;;;2.90;2.70;;;20.70;65.80;;;;;;5011522;28;20539;-75
2022/11/25 09:39:28;;;;;;;3.47;3.17;;;20.80;66.00;;;;;;5011981;28;20459;-74
2022/11/25 09:48:21;;;;;;;4.60;3.10;;;20.80;65.70;;;;;;5005541;28;20503;-70
2022/11/25 09:51:01;;;;;;;3.20;3.00;;;20.80;66.00;;;;;;5008612;28;20557;-70
2022/11/25 09:53:43;;;;;;;3.07;2.83;;;20.80;66.00;;;;;;5002153;28;20439;-70
2022/11/25 09:56:19;;;;;;;4.37;2.87;;;20.80;65.90;;;;;;5005067;28;20478;-71
2022/11/25 09:58:55;;;;;;;3.17;2.87;;;20.80;66.20;;;;;;5005820;28;20455;-70
2022/11/25 10:01:27;;;;;;;2.80;2.60;;;20.80;66.30;;;;;;5006325;28;20459;-69
2022/11/25 10:04:00;;;;;;;2.47;2.37;;;20.80;66.30;;;;;;5008476;28;20456;-70
2022/11/25 10:06:31;;;;;;;3.23;2.93;;;20.90;66.30;;;;;;5008503;28;20452;-70
2022/11/25 10:09:01;;;;;;;3.00;2.80;;;20.90;66.30;;;;;;5008308;28;20597;-70
2022/11/25 10:11:46;;;;;;;2.50;2.30;;;20.90;66.10;;;;;;5007911;28;20457;-71
2022/11/25 10:14:26;;;;;;;2.63;2.40;;;21.00;66.00;;;;;;5005855;28;20475;-70
2022/11/25 10:16:59;;;;;;;2.87;2.67;;;21.00;66.00;;;;;;5010587;28;20837;-70
2022/11/25 10:19:39;;;;;;;2.70;2.50;;;21.00;65.80;;;;;;5005332;28;20486;-71
2022/11/25 10:22:19;;;;;;;3.30;3.00;;;21.00;66.10;;;;;;5006665;28;20467;-71
2022/11/25 10:24:48;;;;;;;3.07;2.77;;;21.00;66.00;;;;;;5009199;28;20491;-75
2022/11/25 10:27:21;;;;;;;3.10;2.80;;;21.00;66.10;;;;;;5004923;28;20506;-74
2022/11/25 10:30:01;;;;;;;3.30;3.00;;;21.00;65.80;;;;;;5007689;28;20940;-71
2022/11/25 10:32:34;;;;;;;3.07;2.73;;;21.00;65.60;;;;;;5004865;28;20550;-73
2022/11/25 10:35:08;;;;;;;2.50;2.30;;;21.00;65.60;;;;;;5006498;28;20451;-75
2022/11/25 10:37:41;;;;;;;2.97;2.73;;;21.00;65.90;;;;;;5008120;28;20455;-75
2022/11/25 10:40:15;;;;;;;2.80;2.60;;;21.00;65.90;;;;;;5006732;28;20463;-74
2022/11/25 10:42:43;;;;;;;3.87;2.47;;;21.00;66.00;;;;;;5010496;28;20453;-74
2022/11/25 10:45:13;;;;;;;9.57;2.93;;;21.00;66.00;;;;;;5007908;28;20951;-73
2022/11/25 10:48:14;;;;;;;4.00;2.37;;;21.00;65.90;;;;;;5007914;28;20484;-73
2022/11/25 10:50:58;;;;;;;5.23;2.50;;;21.10;65.90;;;;;;5010544;28;20822;-75
2022/11/25 10:53:28;;;;;;;3.53;3.23;;;21.10;65.90;;;;;;5008041;28;20549;-69
2022/11/25 10:56:00;;;;;;;5.40;3.23;;;21.10;65.90;;;;;;5008791;28;20905;-75
2022/11/25 10:58:31;;;;;;;3.10;2.90;;;21.10;65.80;;;;;;5005277;28;20460;-71
2022/11/25 11:01:14;;;;;;;2.70;2.50;;;21.20;65.80;;;;;;5009004;28;20491;-75
2022/11/25 11:03:45;;;;;;;3.27;2.97;;;21.20;65.80;;;;;;4999470;28;20455;-74
2022/11/25 11:06:31;;;;;;;2.60;2.40;;;21.20;65.60;;;;;;5014667;28;20561;-74
2022/11/25 11:08:59;;;;;;;3.20;2.50;;;21.20;65.40;;;;;;5000508;28;20604;-74
2022/11/25 11:11:28;;;;;;;3.23;3.00;;;21.10;65.20;;;;;;5006063;28;20459;-74
2022/11/25 11:14:12;;;;;;;3.33;3.07;;;21.10;65.70;;;;;;5009886;28;20927;-72
2022/11/25 11:16:44;;;;;;;2.73;2.60;;;21.10;65.60;;;;;;5001948;28;21373;-74
2022/11/25 11:19:22;;;;;;;4.77;3.43;;;21.10;65.80;;;;;;5006873;28;20781;-72
2022/11/25 11:21:51;;;;;;;2.60;2.40;;;21.10;65.50;;;;;;5006874;28;20454;-73
2022/11/25 11:24:29;;;;;;;3.10;2.50;;;21.10;65.40;;;;;;5006047;28;20571;-73
2022/11/25 11:27:06;;;;;;;2.93;2.73;;;21.10;65.80;;;;;;5005965;28;20472;-76
2022/11/25 11:29:34;;;;;;;2.60;2.40;;;21.10;65.50;;;;;;4989559;28;20468;-74
2022/11/25 11:32:06;;;;;;;3.00;2.77;;;21.10;65.70;;;;;;5007749;28;20455;-75
2022/11/25 11:34:49;;;;;;;2.80;2.70;;;21.10;65.60;;;;;;5004888;28;20464;-75
2022/11/25 11:37:36;;;;;;;3.00;2.80;;;21.10;65.80;;;;;;5005008;28;20505;-74
2022/11/25 11:40:27;;;;;;;2.90;2.70;;;21.10;65.90;;;;;;5006874;28;20474;-74
2022/11/25 11:43:11;;;;;;;2.73;2.53;;;21.10;65.60;;;;;;5004137;28;20483;-74
2022/11/25 11:45:55;;;;;;;3.20;2.90;;;21.10;65.30;;;;;;5009210;28;20458;-74
2022/11/25 11:48:37;;;;;;;3.00;2.80;;;21.10;65.20;;;;;;5011194;28;20986;-74
2022/11/25 11:51:17;;;;;;;2.60;2.40;;;21.10;65.10;;;;;;5006078;28;20463;-72
2022/11/25 11:53:55;;;;;;;2.80;2.60;;;21.10;64.90;;;;;;5010232;28;20479;-74
2022/11/25 11:56:33;;;;;;;2.67;2.47;;;21.10;64.70;;;;;;5014469;28;20557;-74
2022/11/25 11:59:21;;;;;;;3.13;2.93;;;21.00;64.90;;;;;;5012687;28;20536;-74
2022/11/25 12:02:03;;;;;;;4.00;3.03;;;21.00;65.00;;;;;;5013884;28;20442;-71
2022/11/25 12:04:40;;;;;;;3.07;2.77;;;21.00;64.80;;;;;;5014256;28;20938;-75
2022/11/25 12:07:20;;;;;;;3.93;2.10;;;21.00;65.10;;;;;;5013702;28;20451;-73
2022/11/25 12:09:53;;;;;;;2.70;2.50;;;21.00;65.20;;;;;;5011106;28;20484;-72
2022/11/25 12:12:40;;;;;;;2.80;2.60;;;21.00;65.30;;;;;;5011613;28;20449;-74
2022/11/25 12:15:17;;;;;;;2.80;2.60;;;21.00;65.20;;;;;;5010707;28;20941;-74
2022/11/25 12:17:51;;;;;;;2.60;2.40;;;21.00;65.20;;;;;;5012229;28;20805;-74
2022/11/25 12:20:33;;;;;;;2.83;2.63;;;20.90;65.40;;;;;;4995835;28;21035;-74
2022/11/25 12:23:06;;;;;;;2.70;2.50;;;20.90;65.40;;;;;;5009018;28;20486;-74
2022/11/25 12:25:37;;;;;;;2.60;2.40;;;20.90;65.40;;;;;;5011290;28;20542;-74
2022/11/25 12:28:09;;;;;;;2.17;2.07;;;20.90;65.50;;;;;;5011921;28;20543;-74
2022/11/25 12:30:44;;;;;;;3.00;2.67;;;20.90;65.50;;;;;;5007444;28;20453;-74
2022/11/25 12:33:20;;;;;;;2.57;2.37;;;20.90;65.50;;;;;;5012527;28;20946;-73
2022/11/25 12:35:56;;;;;;;3.47;2.77;;;20.90;65.60;;;;;;5013351;28;20538;-73
2022/11/25 12:38:33;;;;;;;3.47;3.13;;;20.90;65.60;;;;;;5014111;28;21441;-74
2022/11/25 12:41:08;;;;;;;2.37;2.17;;;20.90;65.70;;;;;;5009333;28;20468;-72
2022/11/25 12:43:44;;;;;;;2.40;2.20;;;20.90;65.80;;;;;;5013231;28;20439;-73
2022/11/25 12:46:24;;;;;;;2.90;2.70;;;20.90;65.90;;;;;;5006959;28;20449;-73
2022/11/25 12:48:54;;;;;;;3.00;2.80;;;20.90;66.20;;;;;;5012888;28;20475;-72
2022/11/25 12:51:46;;;;;;;2.70;2.50;;;20.80;66.40;;;;;;5012944;28;20451;-73
2022/11/25 12:54:50;;;;;;;3.40;2.57;;;20.80;66.50;;;;;;5013155;28;20457;-72
2022/11/25 12:57:56;;;;;;;3.77;2.53;;;20.80;66.50;;;;;;4962907;28;20558;-74
2022/11/25 13:00:28;;;;;;;3.00;2.80;;;20.80;66.40;;;;;;5009503;28;20952;-73
2022/11/25 13:03:46;;;;;;;4.80;4.00;;;20.80;66.40;;;;;;5013672;28;20459;-72
2022/11/25 13:06:37;;;;;;;6.50;4.63;;;20.80;66.70;;;;;;5008542;28;20459;-74
2022/11/25 13:09:23;;;;;;;8.07;4.07;;;20.80;66.80;;;;;;5009254;28;20479;-74
2022/11/25 13:12:13;;;;;;;7.47;5.27;;;20.80;67.00;;;;;;5005863;28;20547;-75
2022/11/25 13:15:14;;;;;;;10.70;5.17;;;20.80;67.10;;;;;;5010177;28;20803;-75
2022/11/25 13:17:46;;;;;;;9.80;5.80;;;20.80;67.20;;;;;;4998083;28;20466;-74
2022/11/25 13:20:41;;;;;;;9.50;5.40;;;20.80;67.30;;;;;;5008179;28;20981;-73
2022/11/25 13:23:24;;;;;;;8.10;5.00;;;20.80;67.50;;;;;;5011296;28;21185;-70
2022/11/25 13:26:20;;;;;;;8.67;5.03;;;20.90;67.50;;;;;;5005160;28;20982;-73
2022/11/25 13:28:50;;;;;;;9.93;5.90;;;20.90;67.50;;;;;;5009450;28;20479;-74